Time;durP1;ratioP1;P1;durP2;ratioP2;P2;SDS_P1;SDS_P2;PMS_P1;PMS_P2;Temp;Humidity;BMP_temperature;BMP_pressure;BME280_temperature;BME280_humidity;BME280_pressure;Samples;Min_cycle;Max_cycle;Signal;HPM_P1;HPM_P2
2022/03/06 00:02:17;;;;;;;11.77;7.43;;;;;;;;;;5038950;28;20239;-77
2022/03/06 00:04:46;;;;;;;14.70;8.70;;;;;;;;;;5039373;28;20215;-77
2022/03/06 00:07:14;;;;;;;14.20;8.37;;;;;;;;;;5040079;28;20318;-77
2022/03/06 00:09:43;;;;;;;13.93;8.10;;;;;;;;;;5036814;28;20239;-77
2022/03/06 00:12:11;;;;;;;12.20;8.53;;;;;;;;;;5019240;28;20215;-77
2022/03/06 00:14:39;;;;;;;12.17;7.60;;;;;;;;;;5022783;28;20581;-77
2022/03/06 00:17:07;;;;;;;13.40;8.50;;;;;;;;;;5035673;28;20211;-76
2022/03/06 00:19:36;;;;;;;10.83;8.00;;;;;;;;;;5034539;28;20261;-77
2022/03/06 00:22:05;;;;;;;12.03;8.10;;;;;;;;;;5023106;28;20290;-77
2022/03/06 00:24:33;;;;;;;12.87;8.73;;;;;;;;;;5031629;28;20201;-77
2022/03/06 00:27:01;;;;;;;12.37;8.43;;;;;;;;;;5021938;28;20232;-77
2022/03/06 00:29:29;;;;;;;15.83;8.37;;;;;;;;;;5037250;28;20710;-77
2022/03/06 00:31:57;;;;;;;13.70;8.63;;;;;;;;;;5033177;28;20292;-77
2022/03/06 00:34:25;;;;;;;13.47;8.60;;;;;;;;;;5018627;28;20247;-77
2022/03/06 00:36:53;;;;;;;11.83;7.80;;;;;;;;;;5018959;28;20256;-76
2022/03/06 00:39:23;;;;;;;14.53;7.80;;;;;;;;;;5023361;28;20290;-77
2022/03/06 00:41:51;;;;;;;15.97;9.20;;;;;;;;;;5026565;28;20241;-76
2022/03/06 00:44:20;;;;;;;13.33;7.90;;;;;;;;;;5035705;28;20723;-76
2022/03/06 00:46:49;;;;;;;13.93;8.40;;;;;;;;;;5018453;28;20227;-77
2022/03/06 00:49:17;;;;;;;13.70;8.40;;;;;;;;;;5019678;28;20235;-76
2022/03/06 00:51:45;;;;;;;14.57;9.27;;;;;;;;;;5025595;28;20660;-77
2022/03/06 00:54:13;;;;;;;11.33;8.30;;;;;;;;;;5030980;28;20231;-76
2022/03/06 00:56:42;;;;;;;10.60;7.87;;;;;;;;;;5018466;28;20266;-76
2022/03/06 00:59:10;;;;;;;11.80;7.87;;;;;;;;;;5018328;28;20291;-76
2022/03/06 01:01:38;;;;;;;13.10;8.10;;;;;;;;;;5018317;28;20304;-77
2022/03/06 01:04:06;;;;;;;14.00;8.03;;;;;;;;;;5029499;28;20712;-77
2022/03/06 01:06:35;;;;;;;12.73;7.63;;;;;;;;;;5017737;28;20283;-77
2022/03/06 01:09:03;;;;;;;11.67;7.73;;;;;;;;;;5018292;28;20251;-77
2022/03/06 01:11:31;;;;;;;12.80;7.63;;;;;;;;;;5025234;28;20231;-77
2022/03/06 01:14:00;;;;;;;11.93;7.13;;;;;;;;;;5019859;28;20325;-77
2022/03/06 01:16:28;;;;;;;12.37;7.63;;;;;;;;;;5024561;28;20736;-77
2022/03/06 01:18:57;;;;;;;12.87;7.50;;;;;;;;;;5036612;28;20211;-76
2022/03/06 01:21:25;;;;;;;11.03;7.80;;;;;;;;;;5037463;28;20235;-76
2022/03/06 01:23:53;;;;;;;13.27;7.53;;;;;;;;;;5031285;28;20239;-77
2022/03/06 01:26:21;;;;;;;11.23;7.27;;;;;;;;;;5018037;28;20271;-76
2022/03/06 01:28:49;;;;;;;11.97;7.03;;;;;;;;;;5018175;28;20263;-77
2022/03/06 01:31:18;;;;;;;12.77;7.53;;;;;;;;;;5017666;28;20643;-77
2022/03/06 01:33:46;;;;;;;11.03;7.47;;;;;;;;;;5019405;28;20238;-77
2022/03/06 01:36:14;;;;;;;12.13;8.10;;;;;;;;;;5025281;28;20230;-77
2022/03/06 01:38:42;;;;;;;12.13;6.80;;;;;;;;;;5017769;28;20287;-77
2022/03/06 01:41:10;;;;;;;10.20;7.20;;;;;;;;;;5036679;28;20614;-76
2022/03/06 01:43:38;;;;;;;9.33;6.87;;;;;;;;;;5036213;28;20287;-77
2022/03/06 01:46:06;;;;;;;10.77;6.87;;;;;;;;;;5022157;28;20323;-76
2022/03/06 01:48:36;;;;;;;10.33;7.40;;;;;;;;;;5018108;28;20719;-76
2022/03/06 01:51:04;;;;;;;10.63;6.97;;;;;;;;;;5036971;28;20242;-76
2022/03/06 01:53:32;;;;;;;10.03;6.73;;;;;;;;;;5036933;28;20227;-76
2022/03/06 01:56:00;;;;;;;11.40;7.30;;;;;;;;;;5021457;28;20558;-76
2022/03/06 01:58:28;;;;;;;12.37;7.17;;;;;;;;;;5017822;28;20475;-76
2022/03/06 02:01:00;;;;;;;10.67;7.53;;;;;;;;;;5017649;28;20451;-76
2022/03/06 02:03:28;;;;;;;12.30;7.30;;;;;;;;;;5016878;28;20971;-76
2022/03/06 02:05:58;;;;;;;9.13;6.73;;;;;;;;;;5025121;28;20562;-76
2022/03/06 02:08:26;;;;;;;11.30;7.27;;;;;;;;;;5037143;28;20517;-76
2022/03/06 02:10:55;;;;;;;10.73;6.47;;;;;;;;;;5037162;28;20613;-76
2022/03/06 02:13:23;;;;;;;11.50;6.43;;;;;;;;;;5036877;28;20441;-76
2022/03/06 02:15:53;;;;;;;10.53;6.90;;;;;;;;;;5036846;28;20576;-76
2022/03/06 02:18:21;;;;;;;10.10;6.13;;;;;;;;;;5038654;28;20259;-76
2022/03/06 02:20:49;;;;;;;10.47;6.97;;;;;;;;;;5031792;28;20200;-76
2022/03/06 02:23:18;;;;;;;9.77;6.60;;;;;;;;;;5023622;28;20207;-76
2022/03/06 02:25:46;;;;;;;9.07;7.10;;;;;;;;;;5021141;28;20320;-77
2022/03/06 02:28:14;;;;;;;10.80;6.93;;;;;;;;;;5033567;28;20302;-76
2022/03/06 02:30:43;;;;;;;9.70;6.70;;;;;;;;;;5031819;28;20869;-77
2022/03/06 02:33:12;;;;;;;9.83;7.10;;;;;;;;;;5035638;28;21147;-76
2022/03/06 02:35:40;;;;;;;11.67;7.57;;;;;;;;;;5029511;28;20482;-76
2022/03/06 02:38:08;;;;;;;12.37;6.63;;;;;;;;;;5036368;28;20505;-77
2022/03/06 02:40:41;;;;;;;11.67;6.73;;;;;;;;;;5036723;28;20477;-77
2022/03/06 02:43:09;;;;;;;12.00;7.30;;;;;;;;;;5030652;28;20489;-77
2022/03/06 02:45:40;;;;;;;9.17;6.57;;;;;;;;;;5032622;28;20477;-77
2022/03/06 02:48:09;;;;;;;11.47;6.87;;;;;;;;;;5031994;28;20548;-77
2022/03/06 02:50:42;;;;;;;13.53;7.33;;;;;;;;;;5037320;28;20454;-77
2022/03/06 02:53:10;;;;;;;9.50;6.60;;;;;;;;;;5036702;28;20810;-77
2022/03/06 02:55:41;;;;;;;11.87;7.57;;;;;;;;;;5032602;28;20508;-77
2022/03/06 02:58:09;;;;;;;10.00;6.67;;;;;;;;;;5028290;28;20537;-76
2022/03/06 03:00:38;;;;;;;11.20;6.50;;;;;;;;;;5031276;28;20466;-77
2022/03/06 03:03:06;;;;;;;9.53;6.47;;;;;;;;;;5037388;28;20454;-77
2022/03/06 03:05:34;;;;;;;11.33;7.17;;;;;;;;;;5036966;28;20470;-77
2022/03/06 03:08:02;;;;;;;11.60;7.43;;;;;;;;;;5031442;28;20546;-77
2022/03/06 03:10:30;;;;;;;11.07;7.50;;;;;;;;;;5034982;28;20985;-76
2022/03/06 03:13:00;;;;;;;10.30;7.00;;;;;;;;;;5028880;28;20489;-76
2022/03/06 03:15:28;;;;;;;10.53;7.10;;;;;;;;;;5034352;28;20997;-76
2022/03/06 03:17:56;;;;;;;12.50;7.73;;;;;;;;;;5036094;28;20489;-77
2022/03/06 03:20:24;;;;;;;9.87;6.63;;;;;;;;;;5035098;28;20493;-76
2022/03/06 03:22:52;;;;;;;12.73;7.37;;;;;;;;;;5035164;28;20454;-77
2022/03/06 03:25:20;;;;;;;10.27;6.43;;;;;;;;;;5037805;28;20494;-76
2022/03/06 03:27:48;;;;;;;12.07;7.60;;;;;;;;;;5027099;28;20542;-76
2022/03/06 03:30:18;;;;;;;12.27;6.97;;;;;;;;;;5028493;28;20492;-77
2022/03/06 03:32:46;;;;;;;12.53;7.03;;;;;;;;;;5033735;28;20496;-77
2022/03/06 03:35:14;;;;;;;15.87;7.13;;;;;;;;;;5033582;28;20569;-76
2022/03/06 03:37:42;;;;;;;12.23;7.37;;;;;;;;;;5038304;28;20541;-77
2022/03/06 03:40:10;;;;;;;10.80;6.80;;;;;;;;;;5035442;28;20890;-76
2022/03/06 03:42:38;;;;;;;10.97;7.07;;;;;;;;;;5038296;28;20470;-76
2022/03/06 03:45:06;;;;;;;10.73;7.70;;;;;;;;;;5030479;28;20494;-77
2022/03/06 03:47:36;;;;;;;11.53;7.20;;;;;;;;;;5035436;28;21021;-76
2022/03/06 03:50:05;;;;;;;11.77;7.57;;;;;;;;;;5033768;28;20529;-76
2022/03/06 03:52:33;;;;;;;11.23;6.93;;;;;;;;;;5030899;28;20482;-77
2022/03/06 03:55:01;;;;;;;11.00;7.27;;;;;;;;;;5033293;28;20465;-77
2022/03/06 03:57:29;;;;;;;12.37;7.83;;;;;;;;;;5030582;28;20454;-77
2022/03/06 03:59:57;;;;;;;13.43;7.33;;;;;;;;;;5030807;28;20900;-77
2022/03/06 04:02:25;;;;;;;10.83;7.23;;;;;;;;;;5030467;28;20991;-76
2022/03/06 04:04:55;;;;;;;9.70;6.73;;;;;;;;;;5033478;28;20837;-77
2022/03/06 04:07:23;;;;;;;12.47;7.73;;;;;;;;;;5027801;28;20535;-77
2022/03/06 04:09:51;;;;;;;15.20;7.57;;;;;;;;;;5032403;28;20513;-76
2022/03/06 04:12:19;;;;;;;12.50;7.53;;;;;;;;;;5032723;28;20486;-76
2022/03/06 04:14:47;;;;;;;10.60;7.13;;;;;;;;;;5031048;28;20458;-76
2022/03/06 04:17:15;;;;;;;11.67;7.70;;;;;;;;;;5028095;28;20562;-76
2022/03/06 04:19:43;;;;;;;13.40;8.30;;;;;;;;;;5033724;28;20486;-76
2022/03/06 04:22:12;;;;;;;11.30;7.43;;;;;;;;;;5029130;28;20523;-76
2022/03/06 04:24:40;;;;;;;12.53;7.03;;;;;;;;;;5034802;28;21113;-76
2022/03/06 04:27:08;;;;;;;11.90;7.27;;;;;;;;;;5026613;28;20562;-77
2022/03/06 04:29:36;;;;;;;11.47;7.73;;;;;;;;;;5032955;28;20573;-76
2022/03/06 04:32:04;;;;;;;11.93;7.50;;;;;;;;;;5036629;28;20524;-76
2022/03/06 04:34:32;;;;;;;11.60;7.33;;;;;;;;;;5032177;28;20482;-76
2022/03/06 04:37:00;;;;;;;11.70;7.30;;;;;;;;;;5028409;28;20565;-77
2022/03/06 04:39:30;;;;;;;12.37;7.60;;;;;;;;;;5030442;28;20541;-76
2022/03/06 04:41:58;;;;;;;10.53;6.83;;;;;;;;;;5026099;28;20497;-76
2022/03/06 04:44:26;;;;;;;11.10;7.20;;;;;;;;;;5029068;28;20481;-76
2022/03/06 04:46:54;;;;;;;10.87;7.00;;;;;;;;;;5031978;28;20482;-77
2022/03/06 04:49:22;;;;;;;11.77;7.17;;;;;;;;;;5034872;28;20584;-76
2022/03/06 04:51:50;;;;;;;13.80;8.50;;;;;;;;;;5030516;28;20494;-76
2022/03/06 04:54:18;;;;;;;11.10;6.63;;;;;;;;;;5032734;28;20498;-76
2022/03/06 04:56:47;;;;;;;11.57;8.20;;;;;;;;;;5027618;28;20479;-76
2022/03/06 04:59:15;;;;;;;9.53;7.00;;;;;;;;;;5022807;28;20542;-76
2022/03/06 05:01:44;;;;;;;12.50;8.37;;;;;;;;;;5033465;28;20537;-76
2022/03/06 05:04:12;;;;;;;11.13;7.03;;;;;;;;;;5028940;28;20466;-76
2022/03/06 05:06:40;;;;;;;12.03;7.13;;;;;;;;;;5031268;28;20572;-76
2022/03/06 05:09:08;;;;;;;12.33;7.67;;;;;;;;;;5024403;28;21061;-77
2022/03/06 05:11:36;;;;;;;11.20;7.90;;;;;;;;;;5034343;28;20458;-77
2022/03/06 05:14:05;;;;;;;10.00;6.40;;;;;;;;;;5028105;28;20542;-76
2022/03/06 05:16:33;;;;;;;10.17;7.70;;;;;;;;;;5034314;28;20887;-76
2022/03/06 05:19:01;;;;;;;13.90;7.27;;;;;;;;;;5033885;28;20483;-76
2022/03/06 05:21:29;;;;;;;12.13;7.10;;;;;;;;;;5034872;28;20493;-76
2022/03/06 05:23:57;;;;;;;10.17;6.87;;;;;;;;;;5031367;28;20966;-77
2022/03/06 05:26:25;;;;;;;11.03;7.07;;;;;;;;;;5028207;28;20520;-76
2022/03/06 05:28:53;;;;;;;10.13;7.33;;;;;;;;;;5027892;28;20541;-76
2022/03/06 05:31:23;;;;;;;11.03;6.90;;;;;;;;;;5034794;28;20482;-76
2022/03/06 05:33:51;;;;;;;13.77;7.40;;;;;;;;;;5031696;28;21008;-76
2022/03/06 05:36:22;;;;;;;10.50;6.87;;;;;;;;;;5033896;28;20474;-76
2022/03/06 05:38:50;;;;;;;11.50;7.23;;;;;;;;;;5035692;28;20845;-76
2022/03/06 05:41:18;;;;;;;9.03;7.03;;;;;;;;;;5035894;28;20541;-76
2022/03/06 05:43:46;;;;;;;10.27;6.67;;;;;;;;;;5029716;28;20530;-76
2022/03/06 05:46:14;;;;;;;11.30;6.53;;;;;;;;;;5035815;28;20565;-76
2022/03/06 05:48:44;;;;;;;10.37;7.43;;;;;;;;;;5028628;28;20484;-76
2022/03/06 05:51:12;;;;;;;13.93;7.97;;;;;;;;;;5034409;28;20489;-76
2022/03/06 05:53:40;;;;;;;8.80;6.63;;;;;;;;;;5032221;28;20545;-76
2022/03/06 05:56:08;;;;;;;11.33;7.47;;;;;;;;;;5035248;28;20510;-76
2022/03/06 05:58:36;;;;;;;12.80;7.93;;;;;;;;;;5031998;28;20558;-76
2022/03/06 06:01:04;;;;;;;11.33;7.07;;;;;;;;;;5029692;28;20893;-76
2022/03/06 06:03:32;;;;;;;13.83;7.93;;;;;;;;;;5027017;28;20536;-76
2022/03/06 06:06:01;;;;;;;12.23;8.00;;;;;;;;;;5031609;28;21013;-76
2022/03/06 06:08:29;;;;;;;9.73;7.00;;;;;;;;;;5032562;28;20488;-76
2022/03/06 06:10:58;;;;;;;11.23;7.63;;;;;;;;;;5032576;28;21031;-76
2022/03/06 06:13:26;;;;;;;10.57;7.50;;;;;;;;;;5030705;28;20513;-76
2022/03/06 06:15:55;;;;;;;15.00;8.43;;;;;;;;;;5034006;28;20569;-76
2022/03/06 06:18:25;;;;;;;12.73;7.67;;;;;;;;;;5032592;28;20533;-77
2022/03/06 06:20:53;;;;;;;11.87;7.40;;;;;;;;;;5033770;28;20489;-76
2022/03/06 06:23:22;;;;;;;11.07;7.33;;;;;;;;;;5027981;28;21128;-74
2022/03/06 06:25:50;;;;;;;11.07;7.67;;;;;;;;;;5021075;28;21050;-73
2022/03/06 06:28:18;;;;;;;15.53;9.43;;;;;;;;;;5022757;28;20900;-73
2022/03/06 06:30:47;;;;;;;12.03;7.57;;;;;;;;;;5023267;28;20536;-71
2022/03/06 06:33:15;;;;;;;12.57;8.13;;;;;;;;;;5032269;28;20485;-71
2022/03/06 06:35:43;;;;;;;12.67;7.60;;;;;;;;;;5032309;28;20509;-64
2022/03/06 06:38:11;;;;;;;11.53;7.50;;;;;;;;;;5027443;28;20483;-63
2022/03/06 06:40:40;;;;;;;12.57;7.10;;;;;;;;;;5035454;28;20533;-64
2022/03/06 06:43:08;;;;;;;13.80;8.07;;;;;;;;;;5035932;28;20486;-64
2022/03/06 06:45:36;;;;;;;12.90;7.17;;;;;;;;;;5031391;28;20560;-64
2022/03/06 06:48:05;;;;;;;10.20;7.13;;;;;;;;;;5033117;28;20458;-64
2022/03/06 06:50:34;;;;;;;10.57;7.23;;;;;;;;;;5033481;28;20913;-64
2022/03/06 06:53:02;;;;;;;11.43;7.67;;;;;;;;;;5034522;28;20455;-64
2022/03/06 06:55:30;;;;;;;12.73;8.17;;;;;;;;;;5034078;28;20553;-65
2022/03/06 06:57:59;;;;;;;13.90;8.03;;;;;;;;;;5030874;28;20477;-64
2022/03/06 07:00:27;;;;;;;12.70;8.03;;;;;;;;;;5032320;28;20474;-64
2022/03/06 07:02:55;;;;;;;10.07;7.43;;;;;;;;;;5032181;28;20949;-64
2022/03/06 07:05:23;;;;;;;10.30;7.17;;;;;;;;;;5037042;28;20489;-64
2022/03/06 07:07:53;;;;;;;11.67;7.13;;;;;;;;;;5037100;28;20458;-65
2022/03/06 07:10:21;;;;;;;14.03;7.97;;;;;;;;;;5037159;28;20573;-66
2022/03/06 07:12:51;;;;;;;14.07;7.93;;;;;;;;;;5035887;28;20509;-66
2022/03/06 07:15:20;;;;;;;10.87;7.50;;;;;;;;;;5034880;28;20481;-67
2022/03/06 07:17:48;;;;;;;13.00;7.73;;;;;;;;;;5035701;28;20518;-67
2022/03/06 07:20:16;;;;;;;11.27;8.10;;;;;;;;;;5031355;28;20466;-67
2022/03/06 07:22:44;;;;;;;15.33;9.63;;;;;;;;;;5037389;28;20495;-67
2022/03/06 07:25:12;;;;;;;13.00;7.20;;;;;;;;;;5035860;28;20493;-67
2022/03/06 07:27:40;;;;;;;14.77;7.77;;;;;;;;;;5034704;28;21004;-67
2022/03/06 07:30:09;;;;;;;13.00;7.13;;;;;;;;;;5035628;28;20896;-67
2022/03/06 07:32:42;;;;;;;12.90;8.10;;;;;;;;;;5034585;28;20529;-67
2022/03/06 07:35:11;;;;;;;15.23;7.80;;;;;;;;;;5035657;28;20516;-67
2022/03/06 07:37:39;;;;;;;12.70;8.97;;;;;;;;;;5035659;28;20537;-67
2022/03/06 07:40:08;;;;;;;14.17;8.00;;;;;;;;;;5035459;28;20458;-67
2022/03/06 07:42:36;;;;;;;12.67;8.57;;;;;;;;;;5036286;28;20965;-67
2022/03/06 07:45:05;;;;;;;14.37;8.20;;;;;;;;;;5037280;28;20489;-67
2022/03/06 07:47:33;;;;;;;13.43;7.80;;;;;;;;;;5033293;28;20487;-68
2022/03/06 07:50:03;;;;;;;12.63;7.80;;;;;;;;;;5032623;28;20525;-69
2022/03/06 07:52:31;;;;;;;13.23;8.50;;;;;;;;;;5033080;28;20491;-69
2022/03/06 07:54:59;;;;;;;11.43;7.73;;;;;;;;;;5033208;28;21066;-68
2022/03/06 07:57:27;;;;;;;12.47;7.97;;;;;;;;;;5035225;28;20489;-68
2022/03/06 07:59:55;;;;;;;11.23;7.70;;;;;;;;;;5026187;28;20494;-69
2022/03/06 08:02:23;;;;;;;13.57;8.30;;;;;;;;;;5033986;28;20460;-68
2022/03/06 08:04:51;;;;;;;12.83;9.03;;;;;;;;;;5031424;28;20463;-69
2022/03/06 08:07:21;;;;;;;14.13;7.70;;;;;;;;;;5032866;28;20961;-68
2022/03/06 08:09:49;;;;;;;12.77;8.37;;;;;;;;;;5033853;28;20494;-69
2022/03/06 08:12:17;;;;;;;13.23;8.63;;;;;;;;;;5034755;28;20961;-69
2022/03/06 08:14:45;;;;;;;14.27;8.83;;;;;;;;;;5032817;28;20500;-69
2022/03/06 08:17:13;;;;;;;15.50;8.80;;;;;;;;;;5025994;28;20501;-68
2022/03/06 08:19:41;;;;;;;15.03;8.40;;;;;;;;;;5033447;28;20565;-68
2022/03/06 08:22:09;;;;;;;12.97;8.00;;;;;;;;;;5033329;28;20870;-67
2022/03/06 08:24:39;;;;;;;14.83;8.30;;;;;;;;;;5033751;28;20459;-66
2022/03/06 08:27:07;;;;;;;18.00;9.17;;;;;;;;;;5035316;28;20917;-66
2022/03/06 08:29:35;;;;;;;14.37;8.30;;;;;;;;;;5032801;28;20492;-66
2022/03/06 08:32:03;;;;;;;12.67;8.20;;;;;;;;;;5026541;28;20517;-67
2022/03/06 08:34:33;;;;;;;12.77;7.97;;;;;;;;;;5031972;28;20508;-66
2022/03/06 08:37:02;;;;;;;17.37;8.50;;;;;;;;;;5035984;28;20481;-67
2022/03/06 08:39:30;;;;;;;12.60;9.10;;;;;;;;;;5033587;28;20447;-68
2022/03/06 08:41:59;;;;;;;13.00;8.40;;;;;;;;;;5036215;28;20454;-67
2022/03/06 08:44:27;;;;;;;14.63;8.10;;;;;;;;;;5034221;28;20454;-67
2022/03/06 08:46:55;;;;;;;13.83;8.67;;;;;;;;;;5035324;28;20912;-67
2022/03/06 08:49:24;;;;;;;11.93;8.43;;;;;;;;;;5036552;28;20462;-67
2022/03/06 08:51:52;;;;;;;15.20;9.10;;;;;;;;;;5032593;28;20529;-68
2022/03/06 08:54:20;;;;;;;14.93;8.60;;;;;;;;;;5032574;28;21198;-67
2022/03/06 08:56:49;;;;;;;14.47;8.57;;;;;;;;;;5032038;28;20898;-67
2022/03/06 08:59:19;;;;;;;15.03;9.20;;;;;;;;;;5030521;28;20455;-67
2022/03/06 09:01:47;;;;;;;15.50;8.77;;;;;;;;;;5033845;28;20455;-67
2022/03/06 09:04:16;;;;;;;17.77;8.20;;;;;;;;;;5025448;28;20462;-68
2022/03/06 09:06:44;;;;;;;15.97;9.60;;;;;;;;;;5033702;28;20544;-67
2022/03/06 09:09:12;;;;;;;11.53;8.33;;;;;;;;;;5028163;28;20454;-68
2022/03/06 09:11:40;;;;;;;13.77;8.10;;;;;;;;;;5028393;28;20495;-67
2022/03/06 09:14:08;;;;;;;12.83;8.17;;;;;;;;;;5011199;28;20566;-66
2022/03/06 09:16:38;;;;;;;14.87;8.67;;;;;;;;;;5008035;28;20510;-68
2022/03/06 09:19:06;;;;;;;10.30;7.43;;;;;;;;;;5010944;28;20586;-66
2022/03/06 09:21:34;;;;;;;13.47;8.77;;;;;;;;;;5013711;28;20459;-66
2022/03/06 09:24:02;;;;;;;14.60;8.97;;;;;;;;;;5015194;28;20586;-66
2022/03/06 09:26:30;;;;;;;16.17;9.87;;;;;;;;;;5011940;28;20501;-66
2022/03/06 09:28:58;;;;;;;15.83;9.30;;;;;;;;;;5015090;28;20455;-67
2022/03/06 09:31:26;;;;;;;14.50;9.27;;;;;;;;;;5010370;28;20492;-67
2022/03/06 09:33:56;;;;;;;15.77;8.93;;;;;;;;;;5007664;28;21013;-67
2022/03/06 09:36:44;;;;;;;18.27;8.40;;;;;;;;;;5013102;28;20467;-68
2022/03/06 09:39:13;;;;;;;15.57;9.03;;;;;;;;;;5009603;28;20530;-68
2022/03/06 09:41:41;;;;;;;15.17;9.30;;;;;;;;;;5015502;28;20868;-67
2022/03/06 09:44:09;;;;;;;13.60;8.87;;;;;;;;;;5014668;28;20497;-69
2022/03/06 09:46:38;;;;;;;13.47;8.80;;;;;;;;;;5010745;28;20476;-68
2022/03/06 09:49:08;;;;;;;17.33;9.40;;;;;;;;;;5015437;28;20895;-69
2022/03/06 09:51:38;;;;;;;14.50;9.60;;;;;;;;;;5011492;28;20523;-69
2022/03/06 09:54:06;;;;;;;15.30;9.20;;;;;;;;;;5013473;28;20482;-68
2022/03/06 09:56:35;;;;;;;18.40;9.40;;;;;;;;;;5009446;28;20511;-68
2022/03/06 09:59:03;;;;;;;12.90;8.90;;;;;;;;;;5011870;28;20513;-67
2022/03/06 10:01:31;;;;;;;12.37;9.70;;;;;;;;;;5010344;28;20486;-67
2022/03/06 10:04:19;;;;;;;13.80;9.03;;;;;;;;;;5012203;28;20499;-67
2022/03/06 10:06:57;;;;;;;12.80;8.37;;;;;;;;;;5011832;28;20503;-67
2022/03/06 10:09:26;;;;;;;15.40;9.23;;;;;;;;;;5015147;28;20519;-68
2022/03/06 10:11:54;;;;;;;14.53;9.23;;;;;;;;;;5011778;28;20510;-68
2022/03/06 10:14:39;;;;;;;14.13;8.63;;;;;;;;;;5032929;28;20463;-68
2022/03/06 10:17:11;;;;;;;14.83;8.63;;;;;;;;;;5029745;28;20566;-70
2022/03/06 10:19:50;;;;;;;14.57;9.10;;;;;;;;;;5034326;28;20497;-69
2022/03/06 10:22:19;;;;;;;15.60;8.83;;;;;;;;;;5029133;28;20450;-70
2022/03/06 10:24:48;;;;;;;14.53;9.10;;;;;;;;;;5031314;28;20892;-69
2022/03/06 10:27:16;;;;;;;12.60;8.60;;;;;;;;;;5031331;28;20505;-72
2022/03/06 10:29:44;;;;;;;15.10;9.63;;;;;;;;;;5032985;28;20239;-70
2022/03/06 10:32:12;;;;;;;12.63;8.30;;;;;;;;;;5017470;28;20328;-70
2022/03/06 10:34:40;;;;;;;18.83;9.23;;;;;;;;;;5019705;28;20534;-72
2022/03/06 10:37:12;;;;;;;14.00;9.97;;;;;;;;;;5035340;28;20833;-71
2022/03/06 10:39:46;;;;;;;16.67;10.03;;;;;;;;;;5037640;28;20458;-71
2022/03/06 10:42:21;;;;;;;13.40;9.23;;;;;;;;;;5035460;28;21093;-71
2022/03/06 10:44:49;;;;;;;16.23;9.57;;;;;;;;;;5034679;28;20481;-72
2022/03/06 10:47:19;;;;;;;13.80;8.93;;;;;;;;;;5035358;28;20458;-70
2022/03/06 10:49:59;;;;;;;16.43;10.23;;;;;;;;;;5032104;28;20822;-70
2022/03/06 10:52:27;;;;;;;15.50;9.77;;;;;;;;;;5038379;28;20497;-70
2022/03/06 10:54:58;;;;;;;16.63;10.83;;;;;;;;;;5035360;28;20465;-70
2022/03/06 10:57:26;;;;;;;14.70;8.60;;;;;;;;;;5035751;28;20466;-70
2022/03/06 10:59:55;;;;;;;13.73;10.47;;;;;;;;;;5034762;28;20491;-70
2022/03/06 11:02:24;;;;;;;16.03;9.70;;;;;;;;;;5034589;28;20450;-70
2022/03/06 11:04:56;;;;;;;14.37;9.03;;;;;;;;;;5038901;28;20458;-71
2022/03/06 11:07:27;;;;;;;13.13;8.70;;;;;;;;;;5033898;28;20261;-71
2022/03/06 11:09:58;;;;;;;14.53;9.47;;;;;;;;;;5037444;28;20235;-71
2022/03/06 11:12:26;;;;;;;12.80;8.77;;;;;;;;;;5035127;28;20227;-71
2022/03/06 11:14:54;;;;;;;13.70;9.77;;;;;;;;;;5035654;28;20211;-72
2022/03/06 11:17:22;;;;;;;18.40;11.63;;;;;;;;;;5035208;28;20250;-71
2022/03/06 11:19:52;;;;;;;14.80;9.87;;;;;;;;;;5034903;28;20207;-71
2022/03/06 11:22:23;;;;;;;14.60;9.17;;;;;;;;;;5035295;28;20482;-70
2022/03/06 11:24:52;;;;;;;18.07;10.23;;;;;;;;;;5036340;28;20506;-70
2022/03/06 11:27:38;;;;;;;14.23;8.27;;;;;;;;;;5033758;28;20462;-71
2022/03/06 11:30:18;;;;;;;15.53;9.17;;;;;;;;;;5038295;28;20537;-70
2022/03/06 11:32:47;;;;;;;13.70;10.03;;;;;;;;;;5031538;28;20494;-70
2022/03/06 11:35:16;;;;;;;13.70;8.27;;;;;;;;;;5031897;28;20509;-70
2022/03/06 11:37:49;;;;;;;13.63;9.83;;;;;;;;;;5029467;28;20485;-70
2022/03/06 11:40:51;;;;;;;15.60;9.23;;;;;;;;;;5026507;28;20866;-70
2022/03/06 11:43:47;;;;;;;13.03;8.03;;;;;;;;;;5028083;28;20438;-69
2022/03/06 11:46:17;;;;;;;12.63;8.93;;;;;;;;;;4992310;28;20562;-70
2022/03/06 11:49:04;;;;;;;13.63;9.27;;;;;;;;;;5034428;28;20497;-70
2022/03/06 11:51:33;;;;;;;15.87;9.70;;;;;;;;;;5035236;28;20485;-70
2022/03/06 11:54:02;;;;;;;16.23;9.90;;;;;;;;;;5030721;28;20830;-70
2022/03/06 11:56:53;;;;;;;18.50;9.03;;;;;;;;;;5033796;28;20589;-70
2022/03/06 11:59:38;;;;;;;14.10;8.37;;;;;;;;;;5028447;28;20459;-70
2022/03/06 12:02:15;;;;;;;14.17;9.13;;;;;;;;;;5035303;28;20542;-70
2022/03/06 12:04:46;;;;;;;14.90;9.10;;;;;;;;;;5032597;28;20207;-71
2022/03/06 12:07:16;;;;;;;15.00;9.87;;;;;;;;;;5033813;28;20479;-70
2022/03/06 12:09:45;;;;;;;14.73;9.67;;;;;;;;;;5029954;28;20512;-70
2022/03/06 12:12:14;;;;;;;13.83;9.10;;;;;;;;;;5032271;28;20546;-71
2022/03/06 12:14:43;;;;;;;12.40;9.03;;;;;;;;;;5029325;28;20290;-71
2022/03/06 12:17:22;;;;;;;12.33;8.43;;;;;;;;;;5030460;28;20227;-70
2022/03/06 12:20:11;;;;;;;13.90;8.73;;;;;;;;;;5034206;28;20208;-71
2022/03/06 12:22:44;;;;;;;14.90;9.43;;;;;;;;;;5010828;28;20199;-70
2022/03/06 12:25:20;;;;;;;17.80;10.10;;;;;;;;;;5029934;28;20239;-70
2022/03/06 12:28:06;;;;;;;13.50;9.27;;;;;;;;;;5032926;28;20257;-70
2022/03/06 12:30:35;;;;;;;14.83;9.40;;;;;;;;;;5028160;28;20310;-71
2022/03/06 12:33:18;;;;;;;14.07;9.40;;;;;;;;;;5029802;28;20220;-71
2022/03/06 12:35:47;;;;;;;16.07;8.80;;;;;;;;;;5030439;28;20291;-71
2022/03/06 12:38:21;;;;;;;13.73;8.43;;;;;;;;;;5033411;28;20238;-73
2022/03/06 12:40:49;;;;;;;14.33;8.47;;;;;;;;;;5030620;28;20259;-71
2022/03/06 12:43:19;;;;;;;12.10;8.97;;;;;;;;;;5023765;28;20235;-70
2022/03/06 12:45:50;;;;;;;15.13;9.80;;;;;;;;;;5034675;28;20251;-70
2022/03/06 12:48:18;;;;;;;13.47;9.17;;;;;;;;;;5033624;28;20196;-70
2022/03/06 12:50:48;;;;;;;11.70;8.63;;;;;;;;;;5030113;28;20267;-69
2022/03/06 12:53:16;;;;;;;15.87;8.83;;;;;;;;;;5033891;28;20251;-72
2022/03/06 12:55:44;;;;;;;11.37;8.30;;;;;;;;;;5035298;28;20334;-71
2022/03/06 12:58:12;;;;;;;10.90;7.63;;;;;;;;;;5030741;28;20649;-72
2022/03/06 13:00:43;;;;;;;13.13;9.37;;;;;;;;;;5030851;28;20981;-72
2022/03/06 13:03:12;;;;;;;12.27;8.90;;;;;;;;;;5027972;28;20454;-72
2022/03/06 13:05:41;;;;;;;14.93;8.90;;;;;;;;;;5027604;28;20567;-72
2022/03/06 13:08:10;;;;;;;12.63;7.50;;;;;;;;;;5034165;28;20494;-72
2022/03/06 13:10:38;;;;;;;11.80;8.40;;;;;;;;;;5026528;28;20486;-72
2022/03/06 13:13:07;;;;;;;12.53;8.50;;;;;;;;;;5030009;28;20254;-72
2022/03/06 13:15:36;;;;;;;16.47;13.00;;;;;;;;;;5033382;28;20506;-72
2022/03/06 13:18:07;;;;;;;12.47;8.47;;;;;;;;;;5032502;28;20489;-71
2022/03/06 13:20:35;;;;;;;13.83;8.60;;;;;;;;;;5034341;28;20241;-64
2022/03/06 13:23:03;;;;;;;11.03;7.87;;;;;;;;;;5025476;28;20497;-64
2022/03/06 13:25:35;;;;;;;12.33;8.30;;;;;;;;;;5035361;28;20646;-64
2022/03/06 13:28:03;;;;;;;16.70;9.20;;;;;;;;;;5031169;28;20615;-64
2022/03/06 13:30:33;;;;;;;12.13;7.77;;;;;;;;;;5034276;28;20290;-71
2022/03/06 13:33:01;;;;;;;13.30;8.17;;;;;;;;;;5028530;28;20487;-70
2022/03/06 13:35:31;;;;;;;14.67;8.30;;;;;;;;;;5032262;28;20226;-70
2022/03/06 13:37:59;;;;;;;13.10;8.10;;;;;;;;;;5026488;28;20727;-70
2022/03/06 13:40:29;;;;;;;11.93;8.20;;;;;;;;;;5029824;28;20204;-70
2022/03/06 13:42:58;;;;;;;13.97;9.17;;;;;;;;;;5032655;28;20642;-71
2022/03/06 13:45:26;;;;;;;12.23;8.17;;;;;;;;;;5027119;28;20255;-71
2022/03/06 13:47:57;;;;;;;11.30;9.00;;;;;;;;;;5030063;28;20730;-71
2022/03/06 13:50:27;;;;;;;12.67;7.87;;;;;;;;;;5029893;28;20290;-70
2022/03/06 13:52:55;;;;;;;11.30;8.43;;;;;;;;;;5033994;28;20207;-71
2022/03/06 13:55:24;;;;;;;10.73;7.40;;;;;;;;;;5030566;28;20267;-71
2022/03/06 13:58:04;;;;;;;10.73;7.60;;;;;;;;;;5033917;28;20277;-71
2022/03/06 14:00:33;;;;;;;11.83;8.33;;;;;;;;;;5031610;28;20745;-71
2022/03/06 14:03:02;;;;;;;13.33;8.67;;;;;;;;;;5030885;28;20203;-70
2022/03/06 14:05:32;;;;;;;13.83;7.77;;;;;;;;;;5030938;28;20254;-71
2022/03/06 14:08:13;;;;;;;14.67;7.77;;;;;;;;;;5031884;28;20204;-71
2022/03/06 14:10:42;;;;;;;14.10;7.53;;;;;;;;;;5024399;28;20204;-71
2022/03/06 14:13:21;;;;;;;13.10;7.87;;;;;;;;;;5031268;28;20235;-71
2022/03/06 14:15:49;;;;;;;12.30;7.43;;;;;;;;;;5039641;28;20257;-71
2022/03/06 14:18:34;;;;;;;13.83;8.23;;;;;;;;;;5033431;28;20242;-71
2022/03/06 14:21:06;;;;;;;11.70;7.20;;;;;;;;;;5033745;28;20204;-71
2022/03/06 14:23:34;;;;;;;10.40;7.40;;;;;;;;;;5030232;28;20207;-71
2022/03/06 14:26:02;;;;;;;10.23;7.27;;;;;;;;;;5032938;28;20251;-71
2022/03/06 14:28:32;;;;;;;11.63;8.20;;;;;;;;;;5038642;28;20226;-70
2022/03/06 14:31:00;;;;;;;9.47;7.60;;;;;;;;;;5030198;28;20208;-70
2022/03/06 14:33:29;;;;;;;12.73;8.17;;;;;;;;;;5035693;28;20294;-69
2022/03/06 14:35:57;;;;;;;11.43;7.23;;;;;;;;;;5034584;28;20255;-71
2022/03/06 14:38:25;;;;;;;13.00;8.30;;;;;;;;;;5035563;28;20654;-71
2022/03/06 14:40:53;;;;;;;14.17;8.67;;;;;;;;;;5039000;28;20215;-71
2022/03/06 14:43:21;;;;;;;11.27;8.17;;;;;;;;;;5033795;28;20204;-71
2022/03/06 14:45:51;;;;;;;10.97;8.17;;;;;;;;;;5029854;28;20224;-71